createdAt,value
2018-09-25T00:02:07.782Z,70.51
2018-09-25T00:04:41.486Z,70.03
2018-09-25T00:07:15.178Z,69.39
2018-09-25T00:09:49.310Z,68.18
2018-09-25T00:12:23.793Z,68.90
2018-09-25T00:14:58.224Z,68.99
2018-09-25T00:17:32.124Z,68.83
2018-09-25T00:20:06.521Z,69.11
2018-09-25T00:22:40.200Z,68.38
2018-09-25T00:25:15.359Z,68.68
2018-09-25T00:27:49.093Z,67.82
2018-09-25T00:30:23.603Z,70.16
2018-09-25T00:32:58.026Z,67.19
2018-09-25T00:35:33.251Z,68.78
2018-09-25T00:38:07.678Z,69.16
2018-09-25T00:40:41.669Z,67.90
2018-09-25T00:43:16.033Z,66.11
2018-09-25T00:45:49.650Z,65.60
2018-09-25T00:48:23.279Z,65.86
2018-09-25T00:50:56.949Z,66.49
2018-09-25T00:53:30.623Z,64.36
2018-09-25T00:56:04.402Z,65.75
2018-09-25T00:58:37.998Z,64.86
2018-09-25T01:01:11.602Z,63.47
2018-09-25T01:03:45.249Z,63.02
2018-09-25T01:06:18.848Z,64.21
2018-09-25T01:08:52.564Z,64.32
2018-09-25T01:11:26.174Z,64.55
2018-09-25T01:13:59.762Z,63.24
2018-09-25T01:16:33.394Z,63.23
2018-09-25T01:19:07.095Z,65.70
2018-09-25T01:21:41.430Z,64.27
2018-09-25T01:24:15.053Z,63.08
2018-09-25T01:26:48.584Z,64.24
2018-09-25T01:29:22.299Z,62.90
2018-09-25T01:31:56.636Z,65.51
2018-09-25T01:34:30.223Z,62.73
2018-09-25T01:37:04.019Z,64.26
2018-09-25T01:39:38.451Z,65.64
2018-09-25T01:42:12.038Z,63.58
2018-09-25T01:44:45.653Z,64.91
2018-09-25T01:47:19.186Z,64.19
2018-09-25T01:49:52.862Z,63.49
2018-09-25T01:52:26.497Z,63.65
2018-09-25T01:55:00.262Z,64.29
2018-09-25T01:57:33.856Z,63.94
2018-09-25T02:00:07.676Z,64.08
2018-09-25T02:02:41.320Z,62.50
2018-09-25T02:05:15.002Z,63.53
2018-09-25T02:07:48.718Z,64.89
2018-09-25T02:10:22.339Z,65.01
2018-09-25T02:12:55.974Z,63.96
2018-09-25T02:15:29.569Z,64.78
2018-09-25T02:18:03.343Z,63.85
2018-09-25T02:20:36.892Z,64.49
2018-09-25T02:23:10.606Z,65.45
2018-09-25T02:25:44.240Z,66.24
2018-09-25T02:28:17.836Z,63.98
2018-09-25T02:30:51.614Z,65.52
2018-09-25T02:33:25.299Z,63.61
2018-09-25T02:35:58.950Z,63.37
2018-09-25T02:38:32.722Z,64.08
2018-09-25T02:41:06.625Z,63.15
2018-09-25T02:43:40.282Z,63.85
2018-09-25T02:46:13.941Z,64.49
2018-09-25T02:48:48.341Z,64.63
2018-09-25T02:51:21.961Z,63.00
2018-09-25T02:53:55.537Z,64.83
2018-09-25T02:56:29.174Z,63.79
2018-09-25T02:59:02.763Z,63.92
2018-09-25T03:01:36.558Z,63.96
2018-09-25T03:04:10.966Z,65.04
2018-09-25T03:06:44.563Z,64.11
2018-09-25T03:09:18.593Z,64.00
2018-09-25T03:11:53.574Z,64.43
2018-09-25T03:14:27.192Z,63.20
2018-09-25T03:17:00.812Z,65.68
2018-09-25T03:19:34.381Z,65.21
2018-09-25T03:22:08.021Z,66.02
2018-09-25T03:24:42.320Z,66.50
2018-09-25T03:27:16.670Z,65.42
2018-09-25T03:29:51.115Z,65.33
2018-09-25T03:32:24.680Z,66.48
2018-09-25T03:34:58.423Z,65.76
2018-09-25T03:37:32.797Z,66.55
2018-09-25T03:40:06.437Z,66.45
2018-09-25T03:42:40.278Z,67.00
2018-09-25T03:45:13.848Z,65.82
2018-09-25T03:47:47.564Z,65.71
2018-09-25T03:50:21.298Z,65.76
2018-09-25T03:52:54.828Z,64.79
2018-09-25T03:55:28.449Z,66.10
2018-09-25T03:58:02.110Z,64.79
2018-09-25T04:00:36.459Z,64.91
2018-09-25T04:03:10.003Z,65.34
2018-09-25T04:05:43.715Z,64.72
2018-09-25T04:08:17.294Z,65.29
2018-09-25T04:10:50.960Z,65.60
2018-09-25T04:13:25.137Z,65.86
2018-09-25T04:15:59.495Z,65.53
2018-09-25T04:18:33.063Z,66.21
2018-09-25T04:21:06.678Z,65.61
2018-09-25T04:23:41.053Z,66.12
2018-09-25T04:26:14.762Z,63.82
2018-09-25T04:28:49.172Z,66.11
2018-09-25T04:31:23.558Z,64.92
2018-09-25T04:33:57.202Z,65.26
2018-09-25T04:36:31.601Z,65.58
2018-09-25T04:39:05.475Z,64.88
2018-09-25T04:41:40.636Z,64.31
2018-09-25T04:44:14.969Z,64.56
2018-09-25T04:46:48.587Z,64.79
2018-09-25T04:49:22.225Z,65.21
2018-09-25T04:51:57.154Z,64.34
2018-09-25T04:54:30.718Z,64.28
2018-09-25T04:57:04.373Z,66.19
2018-09-25T04:59:38.274Z,65.24
2018-09-25T05:02:12.171Z,66.09
2018-09-25T05:04:45.787Z,65.95
2018-09-25T05:07:19.385Z,67.87
2018-09-25T05:09:53.114Z,65.65
2018-09-25T05:12:26.692Z,66.17
2018-09-25T05:15:00.425Z,65.71
2018-09-25T05:17:34.350Z,64.74
2018-09-25T05:20:08.055Z,65.98
2018-09-25T05:22:41.787Z,67.67
2018-09-25T05:25:15.464Z,66.34
2018-09-25T05:27:49.024Z,66.07
2018-09-25T05:30:22.592Z,65.53
2018-09-25T05:32:56.274Z,66.15
2018-09-25T05:35:30.046Z,65.26
2018-09-25T05:38:04.425Z,64.76
2018-09-25T05:40:38.807Z,65.87
2018-09-25T05:43:12.625Z,65.97
2018-09-25T05:45:46.247Z,65.90
2018-09-25T05:48:19.935Z,67.40
2018-09-25T05:50:53.498Z,68.02
2018-09-25T05:53:27.099Z,68.53
2018-09-25T05:56:07.843Z,68.01
2018-09-25T05:58:41.419Z,68.20
2018-09-25T06:01:15.074Z,68.39
2018-09-25T06:03:48.675Z,69.25
2018-09-25T06:06:22.376Z,69.60
2018-09-25T06:08:56.017Z,69.01
2018-09-25T06:11:29.587Z,68.40
2018-09-25T06:14:03.247Z,69.62
2018-09-25T06:16:37.373Z,67.22
2018-09-25T06:19:11.191Z,67.99
2018-09-25T06:21:45.658Z,68.91
2018-09-25T06:24:19.310Z,68.14
2018-09-25T06:26:53.649Z,63.54
2018-09-25T06:29:27.996Z,57.98
2018-09-25T06:32:01.741Z,54.27
2018-09-25T06:34:35.490Z,51.26
2018-09-25T06:37:09.940Z,49.91
2018-09-25T06:39:43.834Z,47.73
2018-09-25T06:42:18.395Z,44.39
2018-09-25T06:44:52.787Z,42.33
2018-09-25T06:47:26.375Z,42.66
2018-09-25T06:50:00.718Z,43.31
2018-09-25T06:52:34.351Z,41.64
2018-09-25T06:55:07.971Z,42.04
2018-09-25T06:57:41.586Z,38.70
2018-09-25T07:00:15.219Z,37.56
2018-09-25T07:02:49.599Z,35.87
2018-09-25T07:05:23.773Z,34.63
2018-09-25T07:07:57.477Z,36.27
2018-09-25T07:10:31.204Z,34.54
2018-09-25T07:13:05.385Z,33.48
2018-09-25T07:15:39.014Z,35.49
2018-09-25T07:18:12.602Z,36.21
2018-09-25T07:20:46.415Z,38.00
2018-09-25T07:23:20.014Z,39.88
2018-09-25T07:25:53.591Z,43.58
2018-09-25T07:28:27.242Z,44.08
2018-09-25T07:31:00.934Z,43.34
2018-09-25T07:33:34.585Z,42.86
2018-09-25T07:36:08.310Z,42.52
2018-09-25T07:38:42.146Z,46.00
2018-09-25T07:41:15.762Z,45.74
2018-09-25T07:43:49.414Z,46.59
2018-09-25T07:46:23.302Z,48.37
2018-09-25T07:48:57.040Z,50.62
2018-09-25T07:51:30.579Z,48.92
2018-09-25T07:54:04.155Z,48.56
2018-09-25T07:56:37.858Z,49.33
2018-09-25T07:59:11.694Z,49.63
2018-09-25T08:01:46.080Z,50.65
2018-09-25T08:04:19.667Z,52.69
2018-09-25T08:06:53.247Z,52.96
2018-09-25T08:09:26.842Z,52.15
2018-09-25T08:12:00.477Z,49.65
2018-09-25T08:14:35.035Z,48.59
2018-09-25T08:17:09.544Z,43.25
2018-09-25T08:19:43.189Z,42.07
2018-09-25T08:22:16.830Z,37.87
2018-09-25T08:24:50.412Z,35.53
2018-09-25T08:27:23.924Z,34.80
2018-09-25T08:29:57.484Z,35.89
2018-09-25T08:32:32.075Z,33.54
2018-09-25T08:35:06.480Z,33.85
2018-09-25T08:37:39.984Z,29.63
2018-09-25T08:40:13.611Z,29.96
2018-09-25T08:42:47.239Z,28.80
2018-09-25T08:45:21.663Z,28.35
2018-09-25T08:47:55.344Z,28.00
2018-09-25T08:50:29.034Z,27.98
2018-09-25T08:53:03.350Z,27.94
2018-09-25T08:55:37.297Z,27.66
2018-09-25T08:58:11.334Z,29.66
2018-09-25T09:00:44.981Z,25.82
2018-09-25T09:03:18.604Z,28.28
2018-09-25T09:05:53.070Z,27.12
2018-09-25T09:08:26.686Z,25.82
2018-09-25T09:11:00.158Z,25.27
2018-09-25T09:13:33.727Z,28.48
2018-09-25T09:16:07.339Z,27.50
2018-09-25T09:18:40.832Z,30.34
2018-09-25T09:21:14.306Z,32.98
2018-09-25T09:23:47.806Z,34.26
2018-09-25T09:26:21.307Z,31.22
2018-09-25T09:28:55.074Z,31.17
2018-09-25T09:31:28.580Z,31.01
2018-09-25T09:34:02.215Z,32.47
2018-09-25T09:36:35.715Z,33.12
2018-09-25T09:39:09.918Z,35.95
2018-09-25T09:41:43.551Z,38.52
2018-09-25T09:44:16.903Z,38.82
2018-09-25T09:46:50.425Z,39.63
2018-09-25T09:49:23.887Z,38.92
2018-09-25T09:51:57.451Z,40.14
2018-09-25T09:54:31.059Z,38.55
2018-09-25T09:57:04.574Z,34.57
2018-09-25T09:59:38.075Z,32.51
2018-09-25T10:02:11.599Z,34.70
2018-09-25T10:04:45.088Z,36.02
2018-09-25T10:09:58.219Z,38.45
2018-09-25T10:12:31.811Z,38.64
2018-09-25T10:15:05.196Z,39.81
2018-09-25T10:17:39.764Z,36.54
2018-09-25T10:20:13.464Z,35.36
2018-09-25T10:22:47.206Z,35.27
2018-09-25T10:28:13.155Z,36.09
2018-09-25T10:30:46.747Z,36.50
2018-09-25T10:33:21.698Z,37.49
2018-09-25T10:35:55.477Z,37.77
2018-09-25T10:38:29.213Z,38.97
2018-09-25T10:41:03.778Z,40.26
2018-09-25T10:43:37.441Z,41.24
2018-09-25T10:46:11.135Z,42.58
2018-09-25T10:48:44.620Z,42.12
2018-09-25T10:51:18.247Z,40.98
2018-09-25T10:53:51.739Z,39.76
2018-09-25T10:56:25.232Z,39.94
2018-09-25T10:58:58.718Z,38.60
2018-09-25T11:01:36.399Z,38.22
2018-09-25T11:04:10.040Z,35.20
2018-09-25T11:06:43.543Z,38.00
2018-09-25T11:09:17.022Z,35.57
2018-09-25T11:11:50.515Z,34.58
2018-09-25T11:14:24.019Z,35.52
2018-09-25T11:16:57.540Z,37.08
2018-09-25T11:19:30.977Z,37.64
2018-09-25T11:22:04.447Z,40.76
2018-09-25T11:24:37.929Z,41.25
2018-09-25T11:27:11.446Z,41.32
2018-09-25T11:29:45.099Z,40.26
2018-09-25T11:32:18.597Z,41.04
2018-09-25T11:34:52.328Z,40.15
2018-09-25T11:37:25.795Z,38.28
2018-09-25T11:39:59.259Z,37.68
2018-09-25T11:42:32.890Z,36.65
2018-09-25T11:45:07.991Z,37.88
2018-09-25T11:47:42.355Z,39.57
2018-09-25T11:50:16.279Z,39.06
2018-09-25T11:52:49.947Z,39.18
2018-09-25T11:55:23.515Z,38.52
2018-09-25T11:57:59.351Z,38.82
2018-09-25T12:00:33.085Z,39.20
2018-09-25T12:03:06.753Z,40.00
2018-09-25T12:05:41.222Z,39.70
2018-09-25T12:08:15.473Z,39.43
2018-09-25T12:10:50.656Z,40.05
2018-09-25T12:13:24.307Z,38.40
2018-09-25T12:15:57.787Z,34.02
2018-09-25T12:18:31.352Z,31.76
2018-09-25T12:21:05.098Z,33.81
2018-09-25T12:23:38.672Z,34.50
2018-09-25T12:26:12.366Z,33.43
2018-09-25T12:28:46.734Z,33.96
2018-09-25T12:31:21.106Z,35.92
2018-09-25T12:34:00.424Z,36.61
2018-09-25T12:36:34.883Z,35.77
2018-09-25T12:39:08.733Z,37.43
2018-09-25T12:41:42.347Z,35.09
2018-09-25T12:44:16.770Z,35.55
2018-09-25T12:46:50.567Z,35.45
2018-09-25T12:49:24.144Z,35.38
2018-09-25T12:51:58.192Z,35.09
2018-09-25T12:54:31.804Z,36.54
2018-09-25T12:57:05.406Z,34.46
2018-09-25T12:59:38.972Z,36.26
2018-09-25T13:02:13.387Z,34.68
2018-09-25T13:04:46.967Z,35.02
2018-09-25T13:07:24.600Z,34.52
2018-09-25T13:09:58.152Z,34.62
2018-09-25T13:12:31.836Z,34.96
2018-09-25T13:15:05.447Z,34.98
2018-09-25T13:17:39.181Z,37.15
2018-09-25T13:20:12.759Z,38.70
2018-09-25T13:22:46.362Z,39.21
2018-09-25T13:25:20.163Z,40.82
2018-09-25T13:27:53.760Z,40.32
2018-09-25T13:30:27.376Z,40.91
2018-09-25T13:33:01.718Z,38.39
2018-09-25T13:35:35.379Z,39.63
2018-09-25T13:38:09.923Z,40.55
2018-09-25T13:40:43.529Z,40.39
2018-09-25T13:43:17.379Z,40.09
2018-09-25T13:45:51.240Z,39.81
2018-09-25T13:48:24.827Z,40.17
2018-09-25T13:50:58.471Z,40.11
2018-09-25T13:53:32.124Z,39.77
2018-09-25T13:56:06.854Z,40.32
2018-09-25T13:58:40.422Z,40.30
2018-09-25T14:01:14.281Z,40.14
2018-09-25T14:03:48.077Z,40.55
2018-09-25T14:06:21.841Z,40.43
2018-09-25T14:08:55.452Z,40.41
2018-09-25T14:11:28.998Z,39.23
2018-09-25T14:14:03.354Z,39.45
2018-09-25T14:16:37.498Z,39.82
2018-09-25T14:19:11.094Z,39.92
2018-09-25T14:21:44.877Z,40.17
2018-09-25T14:24:18.470Z,41.23
2018-09-25T14:26:52.810Z,40.58
2018-09-25T14:29:26.423Z,41.55
2018-09-25T14:32:00.138Z,41.30
2018-09-25T14:34:34.495Z,41.15
2018-09-25T14:37:08.196Z,40.71
2018-09-25T14:39:42.611Z,40.67
2018-09-25T14:42:17.028Z,39.87
2018-09-25T14:44:51.175Z,40.95
2018-09-25T14:47:24.864Z,41.74
2018-09-25T14:49:58.510Z,42.43
2018-09-25T14:52:32.165Z,40.98
2018-09-25T14:55:06.703Z,41.00
2018-09-25T14:57:40.323Z,41.25
2018-09-25T15:00:14.725Z,41.99
2018-09-25T15:02:48.329Z,42.15
2018-09-25T15:05:22.803Z,41.42
2018-09-25T15:07:56.662Z,41.39
2018-09-25T15:10:30.369Z,40.87
2018-09-25T15:13:04.914Z,42.20
2018-09-25T15:15:39.441Z,42.45
2018-09-25T15:18:13.238Z,41.64
2018-09-25T15:20:46.911Z,40.93
2018-09-25T15:23:20.779Z,39.96
2018-09-25T15:25:55.388Z,39.30
2018-09-25T15:28:28.983Z,38.04
2018-09-25T15:31:03.346Z,39.30
2018-09-25T15:33:36.969Z,39.84
2018-09-25T15:36:10.859Z,41.17
2018-09-25T15:38:44.526Z,42.57
2018-09-25T15:41:18.822Z,46.19
2018-09-25T15:43:52.693Z,47.03
2018-09-25T15:46:27.933Z,46.43
2018-09-25T15:49:02.041Z,46.20
2018-09-25T15:51:36.687Z,45.50
2018-09-25T15:54:10.579Z,43.86
2018-09-25T15:56:44.495Z,43.43
2018-09-25T15:59:19.097Z,44.58
2018-09-25T16:04:39.654Z,40.00
2018-09-25T16:07:13.663Z,40.70
2018-09-25T16:09:47.560Z,42.58
2018-09-25T16:12:22.219Z,41.94
2018-09-25T16:14:56.913Z,43.64
2018-09-25T16:17:31.749Z,44.81
2018-09-25T16:20:05.550Z,45.84
2018-09-25T16:22:39.216Z,45.47
2018-09-25T16:25:12.896Z,48.84
2018-09-25T16:27:46.556Z,49.92
2018-09-25T16:30:20.204Z,50.08
2018-09-25T16:32:53.976Z,50.79
2018-09-25T16:35:27.746Z,50.20
2018-09-25T16:38:01.441Z,50.70
2018-09-25T16:40:35.263Z,49.72
2018-09-25T16:43:08.951Z,51.07
2018-09-25T16:45:42.612Z,51.88
2018-09-25T16:48:16.249Z,53.77
2018-09-25T16:50:50.027Z,53.93
2018-09-25T16:53:23.683Z,53.87
2018-09-25T16:55:57.418Z,54.19
2018-09-25T16:58:31.228Z,54.16
2018-09-25T17:01:05.028Z,54.17
2018-09-25T17:03:38.827Z,53.85
2018-09-25T17:06:12.702Z,54.53
2018-09-25T17:08:47.362Z,54.69
2018-09-25T17:11:21.290Z,55.06
2018-09-25T17:13:55.139Z,55.60
2018-09-25T17:16:28.798Z,55.52
2018-09-25T17:19:02.383Z,55.96
2018-09-25T17:21:36.043Z,56.49
2018-09-25T17:24:09.695Z,57.27
2018-09-25T17:26:44.124Z,58.13
2018-09-25T17:29:18.717Z,57.55
2018-09-25T17:31:52.330Z,57.66
2018-09-25T17:34:26.013Z,56.99
2018-09-25T17:37:00.408Z,58.98
2018-09-25T17:39:34.061Z,59.11
2018-09-25T17:42:07.665Z,57.70
2018-09-25T17:44:41.491Z,57.69
2018-09-25T17:47:15.145Z,58.07
2018-09-25T17:49:49.452Z,57.60
2018-09-25T17:52:23.075Z,57.17
2018-09-25T17:54:56.766Z,56.79
2018-09-25T17:57:30.427Z,58.98
2018-09-25T18:00:04.080Z,59.87
2018-09-25T18:02:37.823Z,59.36
2018-09-25T18:05:11.472Z,60.88
2018-09-25T18:07:45.260Z,57.28
2018-09-25T18:10:18.935Z,57.64
2018-09-25T18:12:52.634Z,57.96
2018-09-25T18:15:26.226Z,59.08
2018-09-25T18:17:59.904Z,58.86
2018-09-25T18:20:34.663Z,61.67
2018-09-25T18:23:08.341Z,59.16
2018-09-25T18:25:42.039Z,61.04
2018-09-25T18:28:16.642Z,62.51
2018-09-25T18:30:50.992Z,61.89
2018-09-25T18:33:24.847Z,61.08
2018-09-25T18:35:58.371Z,59.98
2018-09-25T18:38:38.552Z,59.93
2018-09-25T18:41:12.895Z,60.61
2018-09-25T18:43:47.307Z,58.92
2018-09-25T18:46:21.445Z,59.65
2018-09-25T18:48:55.148Z,60.17
2018-09-25T18:51:28.922Z,60.28
2018-09-25T18:54:02.681Z,62.63
2018-09-25T18:56:37.081Z,60.86
2018-09-25T18:59:14.471Z,61.54
2018-09-25T19:04:33.015Z,60.92
2018-09-25T19:07:07.288Z,61.17
2018-09-25T19:09:43.133Z,60.71
2018-09-25T19:12:16.896Z,59.38
2018-09-25T19:14:50.664Z,61.17
2018-09-25T19:17:24.483Z,60.01
2018-09-25T19:19:59.099Z,60.98
2018-09-25T19:22:32.722Z,61.57
2018-09-25T19:25:06.620Z,62.52
2018-09-25T19:27:41.354Z,61.87
2018-09-25T19:33:11.850Z,63.88
2018-09-25T19:35:45.717Z,62.46
2018-09-25T19:38:20.176Z,63.85
2018-09-25T19:40:53.959Z,61.20
2018-09-25T19:43:27.601Z,60.88
2018-09-25T19:46:01.232Z,60.82
2018-09-25T19:48:35.187Z,61.68
2018-09-25T19:51:08.808Z,60.65
2018-09-25T19:53:42.573Z,60.78
2018-09-25T19:56:16.302Z,63.45
2018-09-25T19:58:50.593Z,62.57
2018-09-25T20:01:24.264Z,60.53
2018-09-25T20:03:58.017Z,62.56
2018-09-25T20:06:31.669Z,63.46
2018-09-25T20:09:05.466Z,63.94
2018-09-25T20:11:39.382Z,62.56
2018-09-25T20:14:13.182Z,63.18
2018-09-25T20:16:47.422Z,61.27
2018-09-25T20:19:21.314Z,61.81
2018-09-25T20:21:55.107Z,63.92
2018-09-25T20:24:28.740Z,62.91
2018-09-25T20:27:02.779Z,61.80
2018-09-25T20:29:37.445Z,62.23
2018-09-25T20:32:11.343Z,62.54
2018-09-25T20:34:45.063Z,62.31
2018-09-25T20:37:19.214Z,63.02
2018-09-25T20:39:53.490Z,63.00
2018-09-25T20:42:27.161Z,61.61
2018-09-25T20:45:00.803Z,61.97
2018-09-25T20:47:34.439Z,62.19
2018-09-25T20:50:08.083Z,63.95
2018-09-25T20:52:41.703Z,63.45
2018-09-25T20:55:16.238Z,62.26
2018-09-25T20:57:49.888Z,61.37
2018-09-25T21:00:23.551Z,61.00
2018-09-25T21:02:57.225Z,63.35
2018-09-25T21:05:31.112Z,63.29
2018-09-25T21:08:04.695Z,62.62
2018-09-25T21:10:38.401Z,61.57
2018-09-25T21:13:12.257Z,62.40
2018-09-25T21:15:46.775Z,62.66
2018-09-25T21:18:22.111Z,64.45
2018-09-25T21:20:56.604Z,62.44
2018-09-25T21:23:30.958Z,62.61
2018-09-25T21:26:04.711Z,63.64
2018-09-25T21:28:38.386Z,63.16
2018-09-25T21:31:12.740Z,61.50
2018-09-25T21:33:46.515Z,62.48
2018-09-25T21:36:20.288Z,63.37
2018-09-25T21:38:54.741Z,63.73
2018-09-25T21:41:28.317Z,61.13
2018-09-25T21:44:01.992Z,60.94
2018-09-25T21:46:35.679Z,60.53
2018-09-25T21:49:10.433Z,62.13
2018-09-25T21:51:44.852Z,62.14
2018-09-25T21:54:18.367Z,61.83
2018-09-25T21:56:52.959Z,62.21
2018-09-25T21:59:26.496Z,62.09
2018-09-25T22:02:00.398Z,63.83
2018-09-25T22:04:34.822Z,63.30
2018-09-25T22:07:09.271Z,63.12
2018-09-25T22:09:42.932Z,64.40
2018-09-25T22:12:17.492Z,62.83
2018-09-25T22:14:51.855Z,62.35
2018-09-25T22:17:25.458Z,61.86
2018-09-25T22:19:59.147Z,62.82
2018-09-25T22:22:33.477Z,61.74
2018-09-25T22:25:07.858Z,63.80
2018-09-25T22:27:41.422Z,61.74
2018-09-25T22:30:15.090Z,62.59
2018-09-25T22:32:48.901Z,63.64
2018-09-25T22:35:22.515Z,61.54
2018-09-25T22:37:56.099Z,63.58
2018-09-25T22:40:29.774Z,63.18
2018-09-25T22:43:03.563Z,62.58
2018-09-25T22:45:37.620Z,62.07
2018-09-25T22:48:11.504Z,63.07
2018-09-25T22:50:45.138Z,64.03
2018-09-25T22:53:18.881Z,63.03
2018-09-25T22:55:53.395Z,62.91
2018-09-25T22:58:27.187Z,64.27
2018-09-25T23:01:00.846Z,64.40
2018-09-25T23:03:34.764Z,63.79
2018-09-25T23:06:08.423Z,63.38
2018-09-25T23:08:42.052Z,64.10
2018-09-25T23:11:15.775Z,63.14
2018-09-25T23:13:49.513Z,64.08
2018-09-25T23:16:23.152Z,63.39
2018-09-25T23:18:56.757Z,63.76
2018-09-25T23:21:31.240Z,65.63
2018-09-25T23:24:04.979Z,64.91
2018-09-25T23:26:38.707Z,63.53
2018-09-25T23:29:12.471Z,64.05
2018-09-25T23:31:46.263Z,63.76
2018-09-25T23:34:20.183Z,62.43
2018-09-25T23:36:54.559Z,61.82
2018-09-25T23:39:28.256Z,64.27
2018-09-25T23:42:01.227Z,63.79
2018-09-25T23:46:42.655Z,63.46
2018-09-25T23:49:19.421Z,62.63
2018-09-25T23:51:52.823Z,63.12
2018-09-25T23:54:29.713Z,62.71
2018-09-25T23:57:05.514Z,62.79
2018-09-25T23:59:38.432Z,64.20
